Rosebud, Montana
Current Conditions -  °F | °C
As of 10:53 PM on Saturday 25 Oct 2014 (Local Time) from KMLS Reporting Station
Clear Clear  
Wind Chill: 57°   Ceiling: Unl
Heat Index: 57°   Visibility: 10mi
Dew Point: 37°   Wind: 17mph
Humidity: 47%   Direction: 150°SSE
Pressure: 29.63"   Gusts: 25mph
Location:  46.27°N, 106.45°W
Report Text: KMLS 260453Z AUTO 15015G22KT 10SM CLR 14/03 A2963 RMK AO2 PK WND 14027/0355 SLP028 T01390028
Loading
Personal Weather Stations






























Interactive Weather Map
Tropical Storm Tracking
New forecast layout! Learn more

10-Day Weather Forecast

Advertisements
Track Severe Weather on mobile